Bokungu Airport


Codes: FZGF/
Name: Bokungu Airport
City: Bokungu
Country: Congo [DRC]
Elevation: 1214 ft.

Photos at Bokungu Airport


   Photos courtesy of SpottingLog. You can add your own sightings and photos by signing up for a free trial today.



No photos found.

Weather at Bokungu Airport


Time (UTC)DescriptionTempratureWindCloud coverageVisibilityPressureHumidity
16-Jun-2024 03:00Broken Clouds24°C2 mph, NW72%10000m1009hPa59%
16-Jun-2024 06:00Broken Clouds25°C2 mph, NW68%10000m1011hPa64%
16-Jun-2024 09:00Broken Clouds31°C4 mph, NW83%10000m1011hPa48%
16-Jun-2024 12:00Overcast Clouds32°C0 mph, N91%10000m1008hPa41%
16-Jun-2024 15:00Light Rain27°C4 mph, N96%10000m1009hPa66%
16-Jun-2024 18:00Light Rain24°C2 mph, N93%10000m1010hPa80%
16-Jun-2024 21:00Broken Clouds23°C2 mph, N81%10000m1011hPa87%
17-Jun-2024 00:00Overcast Clouds23°C2 mph, NW87%10000m1011hPa88%
17-Jun-2024 03:00Overcast Clouds23°C0 mph, N99%10000m1011hPa87%
17-Jun-2024 06:00Overcast Clouds24°C0 mph, N98%10000m1014hPa81%
17-Jun-2024 09:00Overcast Clouds29°C2 mph, N97%10000m1014hPa61%
17-Jun-2024 12:00Overcast Clouds33°C2 mph, N88%10000m1010hPa41%
17-Jun-2024 15:00Overcast Clouds30°C2 mph, NW93%10000m1009hPa49%
17-Jun-2024 18:00Broken Clouds25°C2 mph, W82%10000m1010hPa69%
17-Jun-2024 21:00Scattered Clouds23°C2 mph, NE33%10000m1012hPa79%
18-Jun-2024 00:00Few Clouds22°C2 mph, N22%10000m1010hPa84%
18-Jun-2024 03:00Clear Sky21°C2 mph, NW10%10000m1011hPa90%
18-Jun-2024 06:00Clear Sky25°C2 mph, N9%10000m1013hPa75%
18-Jun-2024 09:00Clear Sky34°C2 mph, NW7%10000m1012hPa41%
18-Jun-2024 12:00Clear Sky38°C2 mph, S6%10000m1008hPa28%
18-Jun-2024 15:00Overcast Clouds30°C2 mph, NW94%10000m1008hPa47%
18-Jun-2024 18:00Light Rain26°C2 mph, W84%10000m1010hPa61%
18-Jun-2024 21:00Light Rain24°C2 mph, W68%10000m1011hPa74%
19-Jun-2024 00:00Broken Clouds23°C0 mph, W55%10000m1009hPa75%
19-Jun-2024 03:00Broken Clouds22°C2 mph, NW56%10000m1010hPa81%
19-Jun-2024 06:00Light Rain25°C2 mph, W32%10000m1012hPa73%
19-Jun-2024 09:00Few Clouds35°C2 mph, NW13%10000m1011hPa38%
19-Jun-2024 12:00Few Clouds35°C0 mph, SE23%10000m1007hPa32%
19-Jun-2024 15:00Broken Clouds31°C4 mph, S64%10000m1007hPa47%
19-Jun-2024 18:00Light Rain25°C2 mph, N61%10000m1009hPa67%
19-Jun-2024 21:00Few Clouds24°C2 mph, NW21%10000m1010hPa75%
20-Jun-2024 00:00Few Clouds23°C2 mph, NW15%10000m1010hPa78%
20-Jun-2024 03:00Broken Clouds23°C2 mph, NW81%10000m1010hPa77%
20-Jun-2024 06:00Broken Clouds26°C2 mph, NW72%10000m1012hPa67%
20-Jun-2024 09:00Broken Clouds35°C2 mph, NW63%10000m1011hPa38%
20-Jun-2024 12:00Broken Clouds39°C0 mph, N66%10000m1007hPa27%
20-Jun-2024 15:00Broken Clouds33°C4 mph, NW79%10000m1007hPa42%
20-Jun-2024 18:00Light Rain26°C2 mph, NE56%10000m1009hPa70%
20-Jun-2024 21:00Light Rain24°C0 mph, W49%10000m1010hPa80%
21-Jun-2024 00:00Broken Clouds23°C2 mph, NE73%10000m1010hPa80%